﻿<?xml version="1.0" encoding="utf-8"?><gpx creator="Garmin Desktop App" version="1.1" xsi:schemaLocation="http://www.topografix.com/GPX/1/1 http://www.topografix.com/GPX/1/1/gpx.xsd http://www.garmin.com/xmlschemas/WaypointExtension/v1 http://www8.garmin.com/xmlschemas/WaypointExtensionv1.xsd http://www.garmin.com/xmlschemas/TrackPointExtension/v1 http://www.garmin.com/xmlschemas/TrackPointExtensionv1.xsd http://www.garmin.com/xmlschemas/GpxExtensions/v3 http://www8.garmin.com/xmlschemas/GpxExtensionsv3.xsd http://www.garmin.com/xmlschemas/ActivityExtension/v1 http://www8.garmin.com/xmlschemas/ActivityExtensionv1.xsd http://www.garmin.com/xmlschemas/AdventuresExtensions/v1 http://www8.garmin.com/xmlschemas/AdventuresExtensionv1.xsd http://www.garmin.com/xmlschemas/PressureExtension/v1 http://www.garmin.com/xmlschemas/PressureExtensionv1.xsd http://www.garmin.com/xmlschemas/TripExtensions/v1 http://www.garmin.com/xmlschemas/TripExtensionsv1.xsd http://www.garmin.com/xmlschemas/TripMetaDataExtensions/v1 http://www.garmin.com/xmlschemas/TripMetaDataExtensionsv1.xsd http://www.garmin.com/xmlschemas/ViaPointTransportationModeExtensions/v1 http://www.garmin.com/xmlschemas/ViaPointTransportationModeExtensionsv1.xsd http://www.garmin.com/xmlschemas/CreationTimeExtension/v1 http://www.garmin.com/xmlschemas/CreationTimeExtensionsv1.xsd http://www.garmin.com/xmlschemas/AccelerationExtension/v1 http://www.garmin.com/xmlschemas/AccelerationExtensionv1.xsd http://www.garmin.com/xmlschemas/PowerExtension/v1 http://www.garmin.com/xmlschemas/PowerExtensionv1.xsd http://www.garmin.com/xmlschemas/VideoExtension/v1 http://www.garmin.com/xmlschemas/VideoExtensionv1.xsd" xmlns="http://www.topografix.com/GPX/1/1" xmlns:xsi="http://www.w3.org/2001/XMLSchema-instance" xmlns:wptx1="http://www.garmin.com/xmlschemas/WaypointExtension/v1" xmlns:gpxtrx="http://www.garmin.com/xmlschemas/GpxExtensions/v3" xmlns:gpxtpx="http://www.garmin.com/xmlschemas/TrackPointExtension/v1" xmlns:gpxx="http://www.garmin.com/xmlschemas/GpxExtensions/v3" xmlns:trp="http://www.garmin.com/xmlschemas/TripExtensions/v1" xmlns:adv="http://www.garmin.com/xmlschemas/AdventuresExtensions/v1" xmlns:prs="http://www.garmin.com/xmlschemas/PressureExtension/v1" xmlns:tmd="http://www.garmin.com/xmlschemas/TripMetaDataExtensions/v1" xmlns:vptm="http://www.garmin.com/xmlschemas/ViaPointTransportationModeExtensions/v1" xmlns:ctx="http://www.garmin.com/xmlschemas/CreationTimeExtension/v1" xmlns:gpxacc="http://www.garmin.com/xmlschemas/AccelerationExtension/v1" xmlns:gpxpx="http://www.garmin.com/xmlschemas/PowerExtension/v1" xmlns:vidx1="http://www.garmin.com/xmlschemas/VideoExtension/v1">

  <metadata>
    <link href="http://www.garmin.com">
      <text>Garmin International</text>
    </link>
    <time>2015-04-07T12:42:47Z</time>
    <bounds maxlat="51.744884038344026" maxlon="15.024579958990216" minlat="51.151718962937593" minlon="14.646087996661663" />
  </metadata>

  <trk>
    <name>3. Tag Oder Neiße Radweg on GPSies.com</name>
    <link href="http://www.gpsies.com/map.do?fileId=clwtfchgjtrvjuvg" />
    <link href="http://www.gpsies.com/charts/cl/map/clwtfchgjtrvjuvg_map.png" />
    <link href="http://www.gpsies.com/charts/cl/mapThumb/clwtfchgjtrvjuvg_mapThumb.png" />
    <link href="http://www.gpsies.com/charts/cl/tab/clwtfchgjtrvjuvg_tab.png" />
    <extensions>
      <gpxx:TrackExtension>
        <gpxx:DisplayColor>DarkGray</gpxx:DisplayColor>
      </gpxx:TrackExtension>
    </extensions>
    <trkseg>
      <trkpt lat="51.151947034522891" lon="14.989047981798649">
        <ele>211</ele>
        <time>2010-01-01T00:00:00Z</time>
      </trkpt>
      <trkpt lat="51.151718962937593" lon="14.989687018096447">
        <ele>210</ele>
        <time>2010-01-01T00:00:18Z</time>
      </trkpt>
      <trkpt lat="51.152252973988652" lon="14.989484008401632">
        <ele>212</ele>
        <time>2010-01-01T00:00:40Z</time>
      </trkpt>
      <trkpt lat="51.153700025752187" lon="14.989563971757889">
        <ele>213</ele>
        <time>2010-01-01T00:02:11Z</time>
      </trkpt>
      <trkpt lat="51.153765991330147" lon="14.989569000899792">
        <ele>210</ele>
        <time>2010-01-01T00:02:14Z</time>
      </trkpt>
      <trkpt lat="51.154941972345114" lon="14.992825035005808">
        <ele>208</ele>
        <time>2010-01-01T00:03:53Z</time>
      </trkpt>
      <trkpt lat="51.155124027282" lon="14.993788031861186">
        <ele>200</ele>
        <time>2010-01-01T00:04:18Z</time>
      </trkpt>
      <trkpt lat="51.156099010258913" lon="14.993551997467875">
        <ele>207</ele>
        <time>2010-01-01T00:04:59Z</time>
      </trkpt>
      <trkpt lat="51.156834019348025" lon="14.99283199198544">
        <ele>203</ele>
        <time>2010-01-01T00:05:37Z</time>
      </trkpt>
      <trkpt lat="51.159539027139544" lon="14.992648009210825">
        <ele>193</ele>
        <time>2010-01-01T00:07:31Z</time>
      </trkpt>
      <trkpt lat="51.159882014617324" lon="14.992158003151417">
        <ele>187</ele>
        <time>2010-01-01T00:07:51Z</time>
      </trkpt>
      <trkpt lat="51.159483036026359" lon="14.991071037948132">
        <ele>194</ele>
        <time>2010-01-01T00:08:22Z</time>
      </trkpt>
      <trkpt lat="51.159455962479115" lon="14.990539960563183">
        <ele>194</ele>
        <time>2010-01-01T00:08:36Z</time>
      </trkpt>
      <trkpt lat="51.158652976155281" lon="14.989452995359898">
        <ele>194</ele>
        <time>2010-01-01T00:09:20Z</time>
      </trkpt>
      <trkpt lat="51.159177012741566" lon="14.988353038206697">
        <ele>194</ele>
        <time>2010-01-01T00:10:00Z</time>
      </trkpt>
      <trkpt lat="51.159091014415026" lon="14.985854979604483">
        <ele>197</ele>
        <time>2010-01-01T00:11:13Z</time>
      </trkpt>
      <trkpt lat="51.159559981897473" lon="14.986227974295616">
        <ele>197</ele>
        <time>2010-01-01T00:11:34Z</time>
      </trkpt>
      <trkpt lat="51.158917006105185" lon="14.984562993049622">
        <ele>199</ele>
        <time>2010-01-01T00:12:30Z</time>
      </trkpt>
      <trkpt lat="51.158769987523556" lon="14.983887998387218">
        <ele>199</ele>
        <time>2010-01-01T00:12:49Z</time>
      </trkpt>
      <trkpt lat="51.159227974712849" lon="14.98561198823154">
        <ele>197</ele>
        <time>2010-01-01T00:13:40Z</time>
      </trkpt>
      <trkpt lat="51.158943995833397" lon="14.987041018903255">
        <ele>197</ele>
        <time>2010-01-01T00:14:18Z</time>
      </trkpt>
      <trkpt lat="51.158967968076468" lon="14.988042991608381">
        <ele>194</ele>
        <time>2010-01-01T00:14:43Z</time>
      </trkpt>
      <trkpt lat="51.159719992429018" lon="14.989247974008322">
        <ele>197</ele>
        <time>2010-01-01T00:15:31Z</time>
      </trkpt>
      <trkpt lat="51.160145960748196" lon="14.98984401114285">
        <ele>191</ele>
        <time>2010-01-01T00:15:54Z</time>
      </trkpt>
      <trkpt lat="51.159987039864063" lon="14.988732989877462">
        <ele>203</ele>
        <time>2010-01-01T00:16:40Z</time>
      </trkpt>
      <trkpt lat="51.160536976531148" lon="14.988369969651103">
        <ele>213</ele>
        <time>2010-01-01T00:17:04Z</time>
      </trkpt>
      <trkpt lat="51.161541966721416" lon="14.988740030676126">
        <ele>221</ele>
        <time>2010-01-01T00:17:46Z</time>
      </trkpt>
      <trkpt lat="51.163013996556401" lon="14.988268967717886">
        <ele>227</ele>
        <time>2010-01-01T00:18:47Z</time>
      </trkpt>
      <trkpt lat="51.164532965049148" lon="14.988344991579652">
        <ele>228</ele>
        <time>2010-01-01T00:19:49Z</time>
      </trkpt>
      <trkpt lat="51.173722967505455" lon="14.99023100361228">
        <ele>199</ele>
        <time>2010-01-01T00:26:00Z</time>
      </trkpt>
      <trkpt lat="51.174652017652988" lon="14.991416037082672">
        <ele>196</ele>
        <time>2010-01-01T00:26:49Z</time>
      </trkpt>
      <trkpt lat="51.175864040851593" lon="14.991228030994534">
        <ele>199</ele>
        <time>2010-01-01T00:27:39Z</time>
      </trkpt>
      <trkpt lat="51.177892964333296" lon="14.99237802810967">
        <ele>202</ele>
        <time>2010-01-01T00:29:06Z</time>
      </trkpt>
      <trkpt lat="51.178133022040129" lon="14.992577014490962">
        <ele>201</ele>
        <time>2010-01-01T00:29:17Z</time>
      </trkpt>
      <trkpt lat="51.179513018578291" lon="14.991840999573469">
        <ele>200</ele>
        <time>2010-01-01T00:30:16Z</time>
      </trkpt>
      <trkpt lat="51.180503005161881" lon="14.992009978741407">
        <ele>195</ele>
        <time>2010-01-01T00:30:57Z</time>
      </trkpt>
      <trkpt lat="51.180767035111785" lon="14.989841999486089">
        <ele>197</ele>
        <time>2010-01-01T00:32:18Z</time>
      </trkpt>
      <trkpt lat="51.181242959573865" lon="14.989639995619655">
        <ele>197</ele>
        <time>2010-01-01T00:32:38Z</time>
      </trkpt>
      <trkpt lat="51.181946033611894" lon="14.989536982029676">
        <ele>191</ele>
        <time>2010-01-01T00:33:07Z</time>
      </trkpt>
      <trkpt lat="51.183552006259561" lon="14.991661962121725">
        <ele>194</ele>
        <time>2010-01-01T00:34:31Z</time>
      </trkpt>
      <trkpt lat="51.18376599624753" lon="14.993414031341672">
        <ele>200</ele>
        <time>2010-01-01T00:35:16Z</time>
      </trkpt>
      <trkpt lat="51.184118958190084" lon="14.997905977070332">
        <ele>195</ele>
        <time>2010-01-01T00:37:11Z</time>
      </trkpt>
      <trkpt lat="51.183132994920015" lon="15.001241974532604">
        <ele>187</ele>
        <time>2010-01-01T00:38:44Z</time>
      </trkpt>
      <trkpt lat="51.18832097388804" lon="14.999542040750384">
        <ele>189</ele>
        <time>2010-01-01T00:42:20Z</time>
      </trkpt>
      <trkpt lat="51.189938010647893" lon="14.999087993055582">
        <ele>180</ele>
        <time>2010-01-01T00:43:26Z</time>
      </trkpt>
      <trkpt lat="51.198764992877841" lon="14.999398039653897">
        <ele>180</ele>
        <time>2010-01-01T00:49:26Z</time>
      </trkpt>
      <trkpt lat="51.203478975221515" lon="15.001684036105871">
        <ele>178</ele>
        <time>2010-01-01T00:52:51Z</time>
      </trkpt>
      <trkpt lat="51.205458026379347" lon="15.001412965357304">
        <ele>182</ele>
        <time>2010-01-01T00:54:11Z</time>
      </trkpt>
      <trkpt lat="51.207859022542834" lon="14.999993992969394">
        <ele>189</ele>
        <time>2010-01-01T00:55:54Z</time>
      </trkpt>
      <trkpt lat="51.208694027736783" lon="14.998765960335732">
        <ele>191</ele>
        <time>2010-01-01T00:56:39Z</time>
      </trkpt>
      <trkpt lat="51.209289981052279" lon="14.998689014464617">
        <ele>192</ele>
        <time>2010-01-01T00:57:04Z</time>
      </trkpt>
      <trkpt lat="51.211563991382718" lon="15.000154003500938">
        <ele>184</ele>
        <time>2010-01-01T00:58:43Z</time>
      </trkpt>
      <trkpt lat="51.212574010714889" lon="15.002033980563283">
        <ele>180</ele>
        <time>2010-01-01T00:59:46Z</time>
      </trkpt>
      <trkpt lat="51.215459983795881" lon="15.001910012215376">
        <ele>177</ele>
        <time>2010-01-01T01:01:44Z</time>
      </trkpt>
      <trkpt lat="51.217344990000129" lon="15.004230961203575">
        <ele>176</ele>
        <time>2010-01-01T01:03:20Z</time>
      </trkpt>
      <trkpt lat="51.218563970178366" lon="15.004632035270333">
        <ele>175</ele>
        <time>2010-01-01T01:04:10Z</time>
      </trkpt>
      <trkpt lat="51.221249029040337" lon="15.003671972081065">
        <ele>178</ele>
        <time>2010-01-01T01:06:04Z</time>
      </trkpt>
      <trkpt lat="51.22480396181345" lon="15.00645199790597">
        <ele>180</ele>
        <time>2010-01-01T01:08:44Z</time>
      </trkpt>
      <trkpt lat="51.228878991678357" lon="15.008314959704876">
        <ele>178</ele>
        <time>2010-01-01T01:11:34Z</time>
      </trkpt>
      <trkpt lat="51.231231959536672" lon="15.010083960369229">
        <ele>178</ele>
        <time>2010-01-01T01:13:19Z</time>
      </trkpt>
      <trkpt lat="51.237861961126328" lon="15.010506995022297">
        <ele>178</ele>
        <time>2010-01-01T01:17:47Z</time>
      </trkpt>
      <trkpt lat="51.23889897018671" lon="15.011125998571515">
        <ele>183</ele>
        <time>2010-01-01T01:18:31Z</time>
      </trkpt>
      <trkpt lat="51.240984974429011" lon="15.012197960168123">
        <ele>180</ele>
        <time>2010-01-01T01:19:59Z</time>
      </trkpt>
      <trkpt lat="51.243293015286326" lon="15.012007020413876">
        <ele>180</ele>
        <time>2010-01-01T01:21:32Z</time>
      </trkpt>
      <trkpt lat="51.250043967738748" lon="15.012964988127351">
        <ele>182</ele>
        <time>2010-01-01T01:26:08Z</time>
      </trkpt>
      <trkpt lat="51.255711978301406" lon="15.017529018223286">
        <ele>180</ele>
        <time>2010-01-01T01:30:22Z</time>
      </trkpt>
      <trkpt lat="51.259144032374024" lon="15.023221001029015">
        <ele>180</ele>
        <time>2010-01-01T01:33:41Z</time>
      </trkpt>
      <trkpt lat="51.260186992585659" lon="15.024579958990216">
        <ele>179</ele>
        <time>2010-01-01T01:34:36Z</time>
      </trkpt>
      <trkpt lat="51.260995008051395" lon="15.014087995514274">
        <ele>181</ele>
        <time>2010-01-01T01:39:02Z</time>
      </trkpt>
      <trkpt lat="51.26951202750206" lon="15.015420969575644">
        <ele>190</ele>
        <time>2010-01-01T01:44:45Z</time>
      </trkpt>
      <trkpt lat="51.27688298933208" lon="15.016858968883753">
        <ele>181</ele>
        <time>2010-01-01T01:49:43Z</time>
      </trkpt>
      <trkpt lat="51.278764978051186" lon="15.016769031062722">
        <ele>179</ele>
        <time>2010-01-01T01:50:58Z</time>
      </trkpt>
      <trkpt lat="51.287681981921196" lon="15.013748025521636">
        <ele>192</ele>
        <time>2010-01-01T01:57:05Z</time>
      </trkpt>
      <trkpt lat="51.291688028723001" lon="15.013117035850883">
        <ele>191</ele>
        <time>2010-01-01T01:59:46Z</time>
      </trkpt>
      <trkpt lat="51.292914971709251" lon="15.012944033369422">
        <ele>190</ele>
        <time>2010-01-01T02:00:36Z</time>
      </trkpt>
      <trkpt lat="51.293429033830762" lon="15.012883013114333">
        <ele>180</ele>
        <time>2010-01-01T02:00:56Z</time>
      </trkpt>
      <trkpt lat="51.293181013315916" lon="15.014619994908571">
        <ele>187</ele>
        <time>2010-01-01T02:01:48Z</time>
      </trkpt>
      <trkpt lat="51.293192999437451" lon="15.02082696184516">
        <ele>185</ele>
        <time>2010-01-01T02:04:26Z</time>
      </trkpt>
      <trkpt lat="51.294526979327202" lon="15.019242027774453">
        <ele>186</ele>
        <time>2010-01-01T02:05:33Z</time>
      </trkpt>
      <trkpt lat="51.294782040640712" lon="15.018847994506359">
        <ele>175</ele>
        <time>2010-01-01T02:05:48Z</time>
      </trkpt>
      <trkpt lat="51.295859031379223" lon="15.016181040555239">
        <ele>178</ele>
        <time>2010-01-01T02:07:07Z</time>
      </trkpt>
      <trkpt lat="51.296067992225289" lon="15.013042017817497">
        <ele>179</ele>
        <time>2010-01-01T02:08:26Z</time>
      </trkpt>
      <trkpt lat="51.296647014096379" lon="15.012073991820216">
        <ele>188</ele>
        <time>2010-01-01T02:09:00Z</time>
      </trkpt>
      <trkpt lat="51.296703005209565" lon="15.012045996263623">
        <ele>188</ele>
        <time>2010-01-01T02:09:03Z</time>
      </trkpt>
      <trkpt lat="51.299066031351686" lon="15.011096997186542">
        <ele>184</ele>
        <time>2010-01-01T02:10:41Z</time>
      </trkpt>
      <trkpt lat="51.300904015079141" lon="15.010846965014935">
        <ele>170</ele>
        <time>2010-01-01T02:12:03Z</time>
      </trkpt>
      <trkpt lat="51.304438998922706" lon="15.005139978602529">
        <ele>170</ele>
        <time>2010-01-01T02:15:29Z</time>
      </trkpt>
      <trkpt lat="51.310079013928771" lon="15.001134015619755">
        <ele>170</ele>
        <time>2010-01-01T02:19:38Z</time>
      </trkpt>
      <trkpt lat="51.311328001320362" lon="14.99998401850462">
        <ele>167</ele>
        <time>2010-01-01T02:20:36Z</time>
      </trkpt>
      <trkpt lat="51.313294982537627" lon="14.994580037891865">
        <ele>167</ele>
        <time>2010-01-01T02:23:15Z</time>
      </trkpt>
      <trkpt lat="51.314263008534908" lon="14.993054028600454">
        <ele>167</ele>
        <time>2010-01-01T02:24:09Z</time>
      </trkpt>
      <trkpt lat="51.314638014882803" lon="14.992567040026188">
        <ele>164</ele>
        <time>2010-01-01T02:24:29Z</time>
      </trkpt>
      <trkpt lat="51.315878033638" lon="14.993944019079208">
        <ele>162</ele>
        <time>2010-01-01T02:25:31Z</time>
      </trkpt>
      <trkpt lat="51.317073963582516" lon="14.9934540130198">
        <ele>166</ele>
        <time>2010-01-01T02:26:22Z</time>
      </trkpt>
      <trkpt lat="51.317909974604845" lon="14.993187971413136">
        <ele>166</ele>
        <time>2010-01-01T02:26:56Z</time>
      </trkpt>
      <trkpt lat="51.318075014278293" lon="14.993212027475238">
        <ele>157</ele>
        <time>2010-01-01T02:27:03Z</time>
      </trkpt>
      <trkpt lat="51.318492013961077" lon="14.993956005200744">
        <ele>156</ele>
        <time>2010-01-01T02:27:31Z</time>
      </trkpt>
      <trkpt lat="51.320294039323926" lon="14.993767999112606">
        <ele>159</ele>
        <time>2010-01-01T02:28:44Z</time>
      </trkpt>
      <trkpt lat="51.320981020107865" lon="14.993979977443814">
        <ele>158</ele>
        <time>2010-01-01T02:29:13Z</time>
      </trkpt>
      <trkpt lat="51.324057010933757" lon="14.988108035176992">
        <ele>154</ele>
        <time>2010-01-01T02:32:29Z</time>
      </trkpt>
      <trkpt lat="51.327454028651118" lon="14.984588976949453">
        <ele>155</ele>
        <time>2010-01-01T02:35:13Z</time>
      </trkpt>
      <trkpt lat="51.328252991661429" lon="14.986116997897625">
        <ele>151</ele>
        <time>2010-01-01T02:36:06Z</time>
      </trkpt>
      <trkpt lat="51.329774977639318" lon="14.98520202934742">
        <ele>151</ele>
        <time>2010-01-01T02:37:13Z</time>
      </trkpt>
      <trkpt lat="51.331282965838909" lon="14.985198006033897">
        <ele>152</ele>
        <time>2010-01-01T02:38:13Z</time>
      </trkpt>
      <trkpt lat="51.334819961339235" lon="14.980760039761662">
        <ele>151</ele>
        <time>2010-01-01T02:41:14Z</time>
      </trkpt>
      <trkpt lat="51.336352005600929" lon="14.979320028796792">
        <ele>152</ele>
        <time>2010-01-01T02:42:26Z</time>
      </trkpt>
      <trkpt lat="51.336992969736457" lon="14.977449020370841">
        <ele>153</ele>
        <time>2010-01-01T02:43:21Z</time>
      </trkpt>
      <trkpt lat="51.336752995848656" lon="14.973916970193386">
        <ele>153</ele>
        <time>2010-01-01T02:44:51Z</time>
      </trkpt>
      <trkpt lat="51.3350860029459" lon="14.972096001729369">
        <ele>156</ele>
        <time>2010-01-01T02:46:14Z</time>
      </trkpt>
      <trkpt lat="51.334621980786324" lon="14.970135977491736">
        <ele>164</ele>
        <time>2010-01-01T02:47:10Z</time>
      </trkpt>
      <trkpt lat="51.335218017920852" lon="14.969548992812634">
        <ele>165</ele>
        <time>2010-01-01T02:47:42Z</time>
      </trkpt>
      <trkpt lat="51.336148995906115" lon="14.966815989464521">
        <ele>164</ele>
        <time>2010-01-01T02:49:00Z</time>
      </trkpt>
      <trkpt lat="51.337028006091714" lon="14.965611007064581">
        <ele>163</ele>
        <time>2010-01-01T02:49:47Z</time>
      </trkpt>
      <trkpt lat="51.340088993310928" lon="14.963003983721137">
        <ele>163</ele>
        <time>2010-01-01T02:52:06Z</time>
      </trkpt>
      <trkpt lat="51.340710008516908" lon="14.964220030233264">
        <ele>161</ele>
        <time>2010-01-01T02:52:48Z</time>
      </trkpt>
      <trkpt lat="51.343028023838997" lon="14.96328997425735">
        <ele>163</ele>
        <time>2010-01-01T02:54:24Z</time>
      </trkpt>
      <trkpt lat="51.361095970496535" lon="14.96333003975451">
        <ele>167</ele>
        <time>2010-01-01T03:06:29Z</time>
      </trkpt>
      <trkpt lat="51.366481008008122" lon="14.964424967765808">
        <ele>158</ele>
        <time>2010-01-01T03:10:08Z</time>
      </trkpt>
      <trkpt lat="51.371422978118062" lon="14.960145000368357">
        <ele>157</ele>
        <time>2010-01-01T03:13:57Z</time>
      </trkpt>
      <trkpt lat="51.373009001836181" lon="14.958897018805146">
        <ele>159</ele>
        <time>2010-01-01T03:15:07Z</time>
      </trkpt>
      <trkpt lat="51.380353979766369" lon="14.957428006455302">
        <ele>154</ele>
        <time>2010-01-01T03:20:04Z</time>
      </trkpt>
      <trkpt lat="51.385633992031217" lon="14.955465970560908">
        <ele>155</ele>
        <time>2010-01-01T03:23:41Z</time>
      </trkpt>
      <trkpt lat="51.389160007238388" lon="14.957758001983166">
        <ele>150</ele>
        <time>2010-01-01T03:26:15Z</time>
      </trkpt>
      <trkpt lat="51.393509041517973" lon="14.957763031125069">
        <ele>152</ele>
        <time>2010-01-01T03:29:10Z</time>
      </trkpt>
      <trkpt lat="51.395913977175951" lon="14.957540994510055">
        <ele>146</ele>
        <time>2010-01-01T03:30:47Z</time>
      </trkpt>
      <trkpt lat="51.397428000345826" lon="14.96028196066618">
        <ele>151</ele>
        <time>2010-01-01T03:32:20Z</time>
      </trkpt>
      <trkpt lat="51.398339029401541" lon="14.964226987212896">
        <ele>138</ele>
        <time>2010-01-01T03:34:06Z</time>
      </trkpt>
      <trkpt lat="51.397875007241964" lon="14.967366009950638">
        <ele>138</ele>
        <time>2010-01-01T03:35:27Z</time>
      </trkpt>
      <trkpt lat="51.398287983611226" lon="14.968244014307857">
        <ele>137</ele>
        <time>2010-01-01T03:35:56Z</time>
      </trkpt>
      <trkpt lat="51.402299981564283" lon="14.96758796274662">
        <ele>141</ele>
        <time>2010-01-01T03:38:40Z</time>
      </trkpt>
      <trkpt lat="51.402599969878793" lon="14.966192962601781">
        <ele>140</ele>
        <time>2010-01-01T03:39:18Z</time>
      </trkpt>
      <trkpt lat="51.405097022652626" lon="14.964210977777839">
        <ele>143</ele>
        <time>2010-01-01T03:41:12Z</time>
      </trkpt>
      <trkpt lat="51.407060986384749" lon="14.962251959368587">
        <ele>141</ele>
        <time>2010-01-01T03:42:46Z</time>
      </trkpt>
      <trkpt lat="51.407251004129648" lon="14.961580988019705">
        <ele>139</ele>
        <time>2010-01-01T03:43:05Z</time>
      </trkpt>
      <trkpt lat="51.407725000753999" lon="14.96133103966713">
        <ele>139</ele>
        <time>2010-01-01T03:43:26Z</time>
      </trkpt>
      <trkpt lat="51.40976800583303" lon="14.958109958097339">
        <ele>146</ele>
        <time>2010-01-01T03:45:21Z</time>
      </trkpt>
      <trkpt lat="51.410509971901774" lon="14.957736041396856">
        <ele>147</ele>
        <time>2010-01-01T03:45:53Z</time>
      </trkpt>
      <trkpt lat="51.411998011171818" lon="14.958696020767093">
        <ele>149</ele>
        <time>2010-01-01T03:46:58Z</time>
      </trkpt>
      <trkpt lat="51.412205966189504" lon="14.960145000368357">
        <ele>149</ele>
        <time>2010-01-01T03:47:38Z</time>
      </trkpt>
      <trkpt lat="51.41544003970921" lon="14.963420983403921">
        <ele>141</ele>
        <time>2010-01-01T03:50:12Z</time>
      </trkpt>
      <trkpt lat="51.415617987513542" lon="14.964796034619212">
        <ele>140</ele>
        <time>2010-01-01T03:50:48Z</time>
      </trkpt>
      <trkpt lat="51.419620011001825" lon="14.963745027780533">
        <ele>146</ele>
        <time>2010-01-01T03:53:32Z</time>
      </trkpt>
      <trkpt lat="51.420870004221797" lon="14.961196007207036">
        <ele>154</ele>
        <time>2010-01-01T03:54:53Z</time>
      </trkpt>
      <trkpt lat="51.421719007194042" lon="14.959155013784766">
        <ele>157</ele>
        <time>2010-01-01T03:55:57Z</time>
      </trkpt>
      <trkpt lat="51.423871982842684" lon="14.960121028125286">
        <ele>159</ele>
        <time>2010-01-01T03:57:27Z</time>
      </trkpt>
      <trkpt lat="51.426232997328043" lon="14.961663968861103">
        <ele>158</ele>
        <time>2010-01-01T03:59:11Z</time>
      </trkpt>
      <trkpt lat="51.428618989884853" lon="14.958704989403486">
        <ele>161</ele>
        <time>2010-01-01T04:01:13Z</time>
      </trkpt>
      <trkpt lat="51.429174961522222" lon="14.957569995895028">
        <ele>158</ele>
        <time>2010-01-01T04:01:49Z</time>
      </trkpt>
      <trkpt lat="51.430197972804308" lon="14.956631977111101">
        <ele>157</ele>
        <time>2010-01-01T04:02:37Z</time>
      </trkpt>
      <trkpt lat="51.431192988529801" lon="14.957004971802235">
        <ele>155</ele>
        <time>2010-01-01T04:03:18Z</time>
      </trkpt>
      <trkpt lat="51.432740958407521" lon="14.958737008273602">
        <ele>149</ele>
        <time>2010-01-01T04:04:34Z</time>
      </trkpt>
      <trkpt lat="51.436008978635073" lon="14.9615260027349">
        <ele>161</ele>
        <time>2010-01-01T04:07:02Z</time>
      </trkpt>
      <trkpt lat="51.43776398152113" lon="14.963721977546811">
        <ele>155</ele>
        <time>2010-01-01T04:08:32Z</time>
      </trkpt>
      <trkpt lat="51.438196990638971" lon="14.964264035224915">
        <ele>141</ele>
        <time>2010-01-01T04:08:54Z</time>
      </trkpt>
      <trkpt lat="51.439702967181802" lon="14.963963963091373">
        <ele>140</ele>
        <time>2010-01-01T04:09:55Z</time>
      </trkpt>
      <trkpt lat="51.44188997335732" lon="14.96462001465261">
        <ele>139</ele>
        <time>2010-01-01T04:11:26Z</time>
      </trkpt>
      <trkpt lat="51.442346032708883" lon="14.965771017596126">
        <ele>139</ele>
        <time>2010-01-01T04:12:05Z</time>
      </trkpt>
      <trkpt lat="51.442848024889827" lon="14.965668004006147">
        <ele>139</ele>
        <time>2010-01-01T04:12:25Z</time>
      </trkpt>
      <trkpt lat="51.443554032593966" lon="14.964454974979162">
        <ele>134</ele>
        <time>2010-01-01T04:13:07Z</time>
      </trkpt>
      <trkpt lat="51.446833033114672" lon="14.962634006515145">
        <ele>138</ele>
        <time>2010-01-01T04:15:27Z</time>
      </trkpt>
      <trkpt lat="51.453996039927006" lon="14.957529008388519">
        <ele>133</ele>
        <time>2010-01-01T04:20:44Z</time>
      </trkpt>
      <trkpt lat="51.456882013007998" lon="14.952797004953027">
        <ele>136</ele>
        <time>2010-01-01T04:23:30Z</time>
      </trkpt>
      <trkpt lat="51.457748031243682" lon="14.95119396597147">
        <ele>129</ele>
        <time>2010-01-01T04:24:23Z</time>
      </trkpt>
      <trkpt lat="51.458833990618587" lon="14.950637994334102">
        <ele>128</ele>
        <time>2010-01-01T04:25:10Z</time>
      </trkpt>
      <trkpt lat="51.462137969210744" lon="14.95233197696507">
        <ele>136</ele>
        <time>2010-01-01T04:27:31Z</time>
      </trkpt>
      <trkpt lat="51.464520022273064" lon="14.952687034383416">
        <ele>141</ele>
        <time>2010-01-01T04:29:07Z</time>
      </trkpt>
      <trkpt lat="51.468211999163032" lon="14.950796999037266">
        <ele>134</ele>
        <time>2010-01-01T04:31:43Z</time>
      </trkpt>
      <trkpt lat="51.469353027641773" lon="14.949352964758873">
        <ele>130</ele>
        <time>2010-01-01T04:32:42Z</time>
      </trkpt>
      <trkpt lat="51.469990974292159" lon="14.949225978925824">
        <ele>127</ele>
        <time>2010-01-01T04:33:08Z</time>
      </trkpt>
      <trkpt lat="51.469641029834747" lon="14.94614596478641">
        <ele>128</ele>
        <time>2010-01-01T04:34:27Z</time>
      </trkpt>
      <trkpt lat="51.471230993047357" lon="14.943412961438298">
        <ele>127</ele>
        <time>2010-01-01T04:36:08Z</time>
      </trkpt>
      <trkpt lat="51.471969019621611" lon="14.941025963053107">
        <ele>132</ele>
        <time>2010-01-01T04:37:14Z</time>
      </trkpt>
      <trkpt lat="51.471931971609592" lon="14.938743989914656">
        <ele>144</ele>
        <time>2010-01-01T04:38:12Z</time>
      </trkpt>
      <trkpt lat="51.471943035721779" lon="14.937916025519371">
        <ele>145</ele>
        <time>2010-01-01T04:38:33Z</time>
      </trkpt>
      <trkpt lat="51.472843000665307" lon="14.933585012331605">
        <ele>139</ele>
        <time>2010-01-01T04:40:33Z</time>
      </trkpt>
      <trkpt lat="51.472709979861975" lon="14.930109037086368">
        <ele>141</ele>
        <time>2010-01-01T04:42:00Z</time>
      </trkpt>
      <trkpt lat="51.472846018150449" lon="14.926819978281856">
        <ele>124</ele>
        <time>2010-01-01T04:43:23Z</time>
      </trkpt>
      <trkpt lat="51.474019987508655" lon="14.92510998621583">
        <ele>127</ele>
        <time>2010-01-01T04:44:28Z</time>
      </trkpt>
      <trkpt lat="51.47613599896431" lon="14.923735018819571">
        <ele>124</ele>
        <time>2010-01-01T04:45:59Z</time>
      </trkpt>
      <trkpt lat="51.477116011083126" lon="14.920609993860126">
        <ele>124</ele>
        <time>2010-01-01T04:47:28Z</time>
      </trkpt>
      <trkpt lat="51.477827969938517" lon="14.918387029320002">
        <ele>136</ele>
        <time>2010-01-01T04:48:33Z</time>
      </trkpt>
      <trkpt lat="51.479718005284667" lon="14.916131040081382">
        <ele>123</ele>
        <time>2010-01-01T04:50:09Z</time>
      </trkpt>
      <trkpt lat="51.479953033849597" lon="14.914413001388311">
        <ele>123</ele>
        <time>2010-01-01T04:50:54Z</time>
      </trkpt>
      <trkpt lat="51.479176031425595" lon="14.912665039300919">
        <ele>123</ele>
        <time>2010-01-01T04:51:48Z</time>
      </trkpt>
      <trkpt lat="51.478967992588878" lon="14.91028499789536">
        <ele>125</ele>
        <time>2010-01-01T04:52:48Z</time>
      </trkpt>
      <trkpt lat="51.479321960359812" lon="14.908360010012984">
        <ele>137</ele>
        <time>2010-01-01T04:53:44Z</time>
      </trkpt>
      <trkpt lat="51.479249959811568" lon="14.907645033672452">
        <ele>136</ele>
        <time>2010-01-01T04:54:02Z</time>
      </trkpt>
      <trkpt lat="51.480034003034234" lon="14.906294038519263">
        <ele>124</ele>
        <time>2010-01-01T04:54:49Z</time>
      </trkpt>
      <trkpt lat="51.480593997985125" lon="14.90398901514709">
        <ele>121</ele>
        <time>2010-01-01T04:55:51Z</time>
      </trkpt>
      <trkpt lat="51.481849020346999" lon="14.902890985831618">
        <ele>121</ele>
        <time>2010-01-01T04:56:49Z</time>
      </trkpt>
      <trkpt lat="51.481879027560353" lon="14.897461021319032">
        <ele>121</ele>
        <time>2010-01-01T04:59:06Z</time>
      </trkpt>
      <trkpt lat="51.484110038727522" lon="14.890331039205194">
        <ele>121</ele>
        <time>2010-01-01T05:02:26Z</time>
      </trkpt>
      <trkpt lat="51.484241969883442" lon="14.883654015138745">
        <ele>121</ele>
        <time>2010-01-01T05:05:13Z</time>
      </trkpt>
      <trkpt lat="51.483732014894485" lon="14.881744030863047">
        <ele>142</ele>
        <time>2010-01-01T05:06:05Z</time>
      </trkpt>
      <trkpt lat="51.48296901024878" lon="14.879464991390705">
        <ele>144</ele>
        <time>2010-01-01T05:07:10Z</time>
      </trkpt>
      <trkpt lat="51.482879994437099" lon="14.877759022638202">
        <ele>144</ele>
        <time>2010-01-01T05:07:54Z</time>
      </trkpt>
      <trkpt lat="51.483510984107852" lon="14.871876016259193">
        <ele>133</ele>
        <time>2010-01-01T05:10:24Z</time>
      </trkpt>
      <trkpt lat="51.481589013710618" lon="14.869648022577167">
        <ele>133</ele>
        <time>2010-01-01T05:12:00Z</time>
      </trkpt>
      <trkpt lat="51.480873031541705" lon="14.866744028404355">
        <ele>133</ele>
        <time>2010-01-01T05:13:18Z</time>
      </trkpt>
      <trkpt lat="51.480967998504639" lon="14.863715982064605">
        <ele>139</ele>
        <time>2010-01-01T05:14:35Z</time>
      </trkpt>
      <trkpt lat="51.481194980442524" lon="14.861630983650684">
        <ele>137</ele>
        <time>2010-01-01T05:15:28Z</time>
      </trkpt>
      <trkpt lat="51.479781037196517" lon="14.859805991873145">
        <ele>135</ele>
        <time>2010-01-01T05:16:43Z</time>
      </trkpt>
      <trkpt lat="51.482872031629086" lon="14.86237202771008">
        <ele>121</ele>
        <time>2010-01-01T05:19:39Z</time>
      </trkpt>
      <trkpt lat="51.486354041844606" lon="14.862212017178535">
        <ele>121</ele>
        <time>2010-01-01T05:22:00Z</time>
      </trkpt>
      <trkpt lat="51.488894009962678" lon="14.857562994584441">
        <ele>120</ele>
        <time>2010-01-01T05:24:34Z</time>
      </trkpt>
      <trkpt lat="51.489471020177007" lon="14.851057967171073">
        <ele>116</ele>
        <time>2010-01-01T05:27:20Z</time>
      </trkpt>
      <trkpt lat="51.494408966973424" lon="14.840228967368603">
        <ele>129</ele>
        <time>2010-01-01T05:32:55Z</time>
      </trkpt>
      <trkpt lat="51.497919978573918" lon="14.832241013646126">
        <ele>114</ele>
        <time>2010-01-01T05:36:59Z</time>
      </trkpt>
      <trkpt lat="51.499009961262345" lon="14.830546025186777">
        <ele>120</ele>
        <time>2010-01-01T05:38:00Z</time>
      </trkpt>
      <trkpt lat="51.49904097430408" lon="14.830172024667263">
        <ele>126</ele>
        <time>2010-01-01T05:38:09Z</time>
      </trkpt>
      <trkpt lat="51.498976014554501" lon="14.828107981011271">
        <ele>129</ele>
        <time>2010-01-01T05:39:01Z</time>
      </trkpt>
      <trkpt lat="51.499177012592554" lon="14.824851024895906">
        <ele>128</ele>
        <time>2010-01-01T05:40:23Z</time>
      </trkpt>
      <trkpt lat="51.4995769970119" lon="14.822973981499672">
        <ele>129</ele>
        <time>2010-01-01T05:41:12Z</time>
      </trkpt>
      <trkpt lat="51.49985795840621" lon="14.82204501517117">
        <ele>120</ele>
        <time>2010-01-01T05:41:38Z</time>
      </trkpt>
      <trkpt lat="51.499700965359807" lon="14.820537026971579">
        <ele>122</ele>
        <time>2010-01-01T05:42:17Z</time>
      </trkpt>
      <trkpt lat="51.500116959214211" lon="14.816957032307982">
        <ele>139</ele>
        <time>2010-01-01T05:43:53Z</time>
      </trkpt>
      <trkpt lat="51.50142596103251" lon="14.814604986459017">
        <ele>126</ele>
        <time>2010-01-01T05:45:13Z</time>
      </trkpt>
      <trkpt lat="51.501922002062201" lon="14.811052987352014">
        <ele>128</ele>
        <time>2010-01-01T05:46:44Z</time>
      </trkpt>
      <trkpt lat="51.502978038042784" lon="14.810589971020818">
        <ele>123</ele>
        <time>2010-01-01T05:47:34Z</time>
      </trkpt>
      <trkpt lat="51.505147023126483" lon="14.807783961296082">
        <ele>137</ele>
        <time>2010-01-01T05:49:26Z</time>
      </trkpt>
      <trkpt lat="51.508698016405106" lon="14.806028036400676">
        <ele>129</ele>
        <time>2010-01-01T05:51:56Z</time>
      </trkpt>
      <trkpt lat="51.509906016290188" lon="14.806904029101133">
        <ele>124</ele>
        <time>2010-01-01T05:52:52Z</time>
      </trkpt>
      <trkpt lat="51.511150980368257" lon="14.805725030601025">
        <ele>117</ele>
        <time>2010-01-01T05:53:51Z</time>
      </trkpt>
      <trkpt lat="51.512956023216248" lon="14.80275004170835">
        <ele>119</ele>
        <time>2010-01-01T05:55:35Z</time>
      </trkpt>
      <trkpt lat="51.51360897347331" lon="14.801593003794551">
        <ele>115</ele>
        <time>2010-01-01T05:56:13Z</time>
      </trkpt>
      <trkpt lat="51.512616975232959" lon="14.799520997330546">
        <ele>131</ele>
        <time>2010-01-01T05:57:21Z</time>
      </trkpt>
      <trkpt lat="51.512717977166176" lon="14.798742989078164">
        <ele>140</ele>
        <time>2010-01-01T05:57:41Z</time>
      </trkpt>
      <trkpt lat="51.513265985995531" lon="14.795224014669657">
        <ele>138</ele>
        <time>2010-01-01T05:59:15Z</time>
      </trkpt>
      <trkpt lat="51.514521008357406" lon="14.794068988412619">
        <ele>139</ele>
        <time>2010-01-01T06:00:13Z</time>
      </trkpt>
      <trkpt lat="51.513573015108705" lon="14.791431035846472">
        <ele>139</ele>
        <time>2010-01-01T06:01:32Z</time>
      </trkpt>
      <trkpt lat="51.513641998171806" lon="14.790587984025478">
        <ele>140</ele>
        <time>2010-01-01T06:01:53Z</time>
      </trkpt>
      <trkpt lat="51.513702012598515" lon="14.788737008348107">
        <ele>143</ele>
        <time>2010-01-01T06:02:45Z</time>
      </trkpt>
      <trkpt lat="51.513589024543762" lon="14.788118004798889">
        <ele>143</ele>
        <time>2010-01-01T06:03:01Z</time>
      </trkpt>
      <trkpt lat="51.513352990150452" lon="14.78373602963984">
        <ele>140</ele>
        <time>2010-01-01T06:04:51Z</time>
      </trkpt>
      <trkpt lat="51.514066960662603" lon="14.781496971845627">
        <ele>140</ele>
        <time>2010-01-01T06:05:55Z</time>
      </trkpt>
      <trkpt lat="51.514576999470592" lon="14.779869960620999">
        <ele>138</ele>
        <time>2010-01-01T06:06:41Z</time>
      </trkpt>
      <trkpt lat="51.514814961701632" lon="14.779205024242401">
        <ele>130</ele>
        <time>2010-01-01T06:07:01Z</time>
      </trkpt>
      <trkpt lat="51.515246964991093" lon="14.779297979548573">
        <ele>130</ele>
        <time>2010-01-01T06:07:18Z</time>
      </trkpt>
      <trkpt lat="51.516106026247144" lon="14.777930974960327">
        <ele>133</ele>
        <time>2010-01-01T06:08:07Z</time>
      </trkpt>
      <trkpt lat="51.516466028988361" lon="14.77718498557806">
        <ele>130</ele>
        <time>2010-01-01T06:08:31Z</time>
      </trkpt>
      <trkpt lat="51.516126981005073" lon="14.775753021240234">
        <ele>127</ele>
        <time>2010-01-01T06:09:10Z</time>
      </trkpt>
      <trkpt lat="51.516817985102534" lon="14.774459023028612">
        <ele>128</ele>
        <time>2010-01-01T06:09:53Z</time>
      </trkpt>
      <trkpt lat="51.51648597791791" lon="14.773701969534159">
        <ele>130</ele>
        <time>2010-01-01T06:10:16Z</time>
      </trkpt>
      <trkpt lat="51.515428014099598" lon="14.771286975592375">
        <ele>122</ele>
        <time>2010-01-01T06:11:30Z</time>
      </trkpt>
      <trkpt lat="51.51530496776104" lon="14.768580961972475">
        <ele>125</ele>
        <time>2010-01-01T06:12:39Z</time>
      </trkpt>
      <trkpt lat="51.516237035393715" lon="14.766538962721825">
        <ele>122</ele>
        <time>2010-01-01T06:13:42Z</time>
      </trkpt>
      <trkpt lat="51.516425041481853" lon="14.766154987737536">
        <ele>113</ele>
        <time>2010-01-01T06:13:55Z</time>
      </trkpt>
      <trkpt lat="51.516469968482852" lon="14.764222959056497">
        <ele>114</ele>
        <time>2010-01-01T06:14:44Z</time>
      </trkpt>
      <trkpt lat="51.517761033028364" lon="14.764627972617745">
        <ele>112</ele>
        <time>2010-01-01T06:15:39Z</time>
      </trkpt>
      <trkpt lat="51.517592975869775" lon="14.762065960094333">
        <ele>113</ele>
        <time>2010-01-01T06:16:44Z</time>
      </trkpt>
      <trkpt lat="51.521259974688292" lon="14.761879965662956">
        <ele>110</ele>
        <time>2010-01-01T06:19:14Z</time>
      </trkpt>
      <trkpt lat="51.521896999329329" lon="14.7611990198493">
        <ele>111</ele>
        <time>2010-01-01T06:19:45Z</time>
      </trkpt>
      <trkpt lat="51.522135967388749" lon="14.760367032140493">
        <ele>117</ele>
        <time>2010-01-01T06:20:08Z</time>
      </trkpt>
      <trkpt lat="51.521323006600142" lon="14.755599992349744">
        <ele>113</ele>
        <time>2010-01-01T06:22:12Z</time>
      </trkpt>
      <trkpt lat="51.521529033780098" lon="14.750375971198082">
        <ele>118</ele>
        <time>2010-01-01T06:24:23Z</time>
      </trkpt>
      <trkpt lat="51.523099970072508" lon="14.744581980630755">
        <ele>115</ele>
        <time>2010-01-01T06:27:01Z</time>
      </trkpt>
      <trkpt lat="51.523933969438076" lon="14.7427630238235">
        <ele>114</ele>
        <time>2010-01-01T06:27:58Z</time>
      </trkpt>
      <trkpt lat="51.524020973592997" lon="14.74145301617682">
        <ele>114</ele>
        <time>2010-01-01T06:28:31Z</time>
      </trkpt>
      <trkpt lat="51.524651041254401" lon="14.737496003508568">
        <ele>108</ele>
        <time>2010-01-01T06:30:13Z</time>
      </trkpt>
      <trkpt lat="51.527064023539424" lon="14.733144035562873">
        <ele>114</ele>
        <time>2010-01-01T06:32:39Z</time>
      </trkpt>
      <trkpt lat="51.527697024866939" lon="14.732170980423689">
        <ele>112</ele>
        <time>2010-01-01T06:33:14Z</time>
      </trkpt>
      <trkpt lat="51.527399970218539" lon="14.728151019662619">
        <ele>123</ele>
        <time>2010-01-01T06:34:57Z</time>
      </trkpt>
      <trkpt lat="51.527436012402177" lon="14.726980989798903">
        <ele>117</ele>
        <time>2010-01-01T06:35:27Z</time>
      </trkpt>
      <trkpt lat="51.529457978904247" lon="14.726774040609598">
        <ele>120</ele>
        <time>2010-01-01T06:36:48Z</time>
      </trkpt>
      <trkpt lat="51.536562982946634" lon="14.726889962330461">
        <ele>108</ele>
        <time>2010-01-01T06:41:33Z</time>
      </trkpt>
      <trkpt lat="51.539942985400558" lon="14.725523963570595">
        <ele>114</ele>
        <time>2010-01-01T06:43:54Z</time>
      </trkpt>
      <trkpt lat="51.540379012003541" lon="14.726048000156879">
        <ele>114</ele>
        <time>2010-01-01T06:44:16Z</time>
      </trkpt>
      <trkpt lat="51.542523019015789" lon="14.727559005841613">
        <ele>107</ele>
        <time>2010-01-01T06:46:01Z</time>
      </trkpt>
      <trkpt lat="51.542658973485231" lon="14.728011041879654">
        <ele>106</ele>
        <time>2010-01-01T06:46:15Z</time>
      </trkpt>
      <trkpt lat="51.543354000896215" lon="14.728418989107013">
        <ele>107</ele>
        <time>2010-01-01T06:46:46Z</time>
      </trkpt>
      <trkpt lat="51.545889023691416" lon="14.724146984517574">
        <ele>109</ele>
        <time>2010-01-01T06:49:17Z</time>
      </trkpt>
      <trkpt lat="51.547115966677666" lon="14.723946992307901">
        <ele>108</ele>
        <time>2010-01-01T06:50:10Z</time>
      </trkpt>
      <trkpt lat="51.546557983383536" lon="14.725718004629016">
        <ele>109</ele>
        <time>2010-01-01T06:51:01Z</time>
      </trkpt>
      <trkpt lat="51.547024017199874" lon="14.727033963426948">
        <ele>110</ele>
        <time>2010-01-01T06:51:39Z</time>
      </trkpt>
      <trkpt lat="51.547760032117367" lon="14.727821024134755">
        <ele>109</ele>
        <time>2010-01-01T06:52:15Z</time>
      </trkpt>
      <trkpt lat="51.550177037715912" lon="14.725345009937882">
        <ele>112</ele>
        <time>2010-01-01T06:54:11Z</time>
      </trkpt>
      <trkpt lat="51.550825964659452" lon="14.724238011986017">
        <ele>109</ele>
        <time>2010-01-01T06:54:49Z</time>
      </trkpt>
      <trkpt lat="51.552416011691093" lon="14.723730990663171">
        <ele>113</ele>
        <time>2010-01-01T06:55:55Z</time>
      </trkpt>
      <trkpt lat="51.553552011027932" lon="14.722561966627836">
        <ele>109</ele>
        <time>2010-01-01T06:56:49Z</time>
      </trkpt>
      <trkpt lat="51.553864991292357" lon="14.721823018044233">
        <ele>109</ele>
        <time>2010-01-01T06:57:11Z</time>
      </trkpt>
      <trkpt lat="51.553727025166154" lon="14.719287995249033">
        <ele>112</ele>
        <time>2010-01-01T06:58:15Z</time>
      </trkpt>
      <trkpt lat="51.553307007998228" lon="14.718649964779615">
        <ele>114</ele>
        <time>2010-01-01T06:58:38Z</time>
      </trkpt>
      <trkpt lat="51.554455999284983" lon="14.717064024880528">
        <ele>115</ele>
        <time>2010-01-01T06:59:41Z</time>
      </trkpt>
      <trkpt lat="51.554565969854593" lon="14.716511992737651">
        <ele>115</ele>
        <time>2010-01-01T06:59:56Z</time>
      </trkpt>
      <trkpt lat="51.555044995620847" lon="14.715811014175415">
        <ele>112</ele>
        <time>2010-01-01T07:00:22Z</time>
      </trkpt>
      <trkpt lat="51.556058032438159" lon="14.714968968182802">
        <ele>110</ele>
        <time>2010-01-01T07:01:08Z</time>
      </trkpt>
      <trkpt lat="51.557639027014375" lon="14.712621029466391">
        <ele>110</ele>
        <time>2010-01-01T07:02:35Z</time>
      </trkpt>
      <trkpt lat="51.556561030447483" lon="14.708803994581103">
        <ele>118</ele>
        <time>2010-01-01T07:04:27Z</time>
      </trkpt>
      <trkpt lat="51.564058978110552" lon="14.708608025684953">
        <ele>111</ele>
        <time>2010-01-01T07:09:30Z</time>
      </trkpt>
      <trkpt lat="51.56828798353672" lon="14.709344040602446">
        <ele>112</ele>
        <time>2010-01-01T07:12:21Z</time>
      </trkpt>
      <trkpt lat="51.574488999322057" lon="14.718371015042067">
        <ele>116</ele>
        <time>2010-01-01T07:17:57Z</time>
      </trkpt>
      <trkpt lat="51.579255033284426" lon="14.723001010715961">
        <ele>108</ele>
        <time>2010-01-01T07:21:40Z</time>
      </trkpt>
      <trkpt lat="51.579531971365213" lon="14.722794983536005">
        <ele>110</ele>
        <time>2010-01-01T07:22:03Z</time>
      </trkpt>
      <trkpt lat="51.579900020733476" lon="14.72428796812892">
        <ele>104</ele>
        <time>2010-01-01T07:22:58Z</time>
      </trkpt>
      <trkpt lat="51.581234000623226" lon="14.726371038705111">
        <ele>100</ele>
        <time>2010-01-01T07:24:13Z</time>
      </trkpt>
      <trkpt lat="51.582551971077919" lon="14.72723001614213">
        <ele>104</ele>
        <time>2010-01-01T07:25:11Z</time>
      </trkpt>
      <trkpt lat="51.58319897018373" lon="14.726359974592924">
        <ele>111</ele>
        <time>2010-01-01T07:25:46Z</time>
      </trkpt>
      <trkpt lat="51.583803975954652" lon="14.726996999233961">
        <ele>117</ele>
        <time>2010-01-01T07:26:16Z</time>
      </trkpt>
      <trkpt lat="51.584940981119871" lon="14.730479009449482">
        <ele>108</ele>
        <time>2010-01-01T07:27:56Z</time>
      </trkpt>
      <trkpt lat="51.587034026160836" lon="14.731617020443082">
        <ele>110</ele>
        <time>2010-01-01T07:29:25Z</time>
      </trkpt>
      <trkpt lat="51.587996017187834" lon="14.732982013374567">
        <ele>100</ele>
        <time>2010-01-01T07:30:17Z</time>
      </trkpt>
      <trkpt lat="51.589845987036824" lon="14.734279029071331">
        <ele>104</ele>
        <time>2010-01-01T07:31:38Z</time>
      </trkpt>
      <trkpt lat="51.594773037359118" lon="14.739704970270395">
        <ele>119</ele>
        <time>2010-01-01T07:35:37Z</time>
      </trkpt>
      <trkpt lat="51.594786029309034" lon="14.743615966290236">
        <ele>115</ele>
        <time>2010-01-01T07:37:16Z</time>
      </trkpt>
      <trkpt lat="51.595001025125384" lon="14.747033016756177">
        <ele>98</ele>
        <time>2010-01-01T07:38:42Z</time>
      </trkpt>
      <trkpt lat="51.596115985885262" lon="14.750642012804747">
        <ele>98</ele>
        <time>2010-01-01T07:40:23Z</time>
      </trkpt>
      <trkpt lat="51.598164020106196" lon="14.751084996387362">
        <ele>117</ele>
        <time>2010-01-01T07:41:49Z</time>
      </trkpt>
      <trkpt lat="51.599020985886455" lon="14.751789998263121">
        <ele>111</ele>
        <time>2010-01-01T07:42:28Z</time>
      </trkpt>
      <trkpt lat="51.600480023771524" lon="14.753773994743824">
        <ele>99</ele>
        <time>2010-01-01T07:43:44Z</time>
      </trkpt>
      <trkpt lat="51.600968018174171" lon="14.756122017279267">
        <ele>103</ele>
        <time>2010-01-01T07:44:47Z</time>
      </trkpt>
      <trkpt lat="51.601452995091677" lon="14.756716964766383">
        <ele>117</ele>
        <time>2010-01-01T07:45:12Z</time>
      </trkpt>
      <trkpt lat="51.602777000516653" lon="14.757900992408395">
        <ele>118</ele>
        <time>2010-01-01T07:46:14Z</time>
      </trkpt>
      <trkpt lat="51.603685012087226" lon="14.759860010817647">
        <ele>109</ele>
        <time>2010-01-01T07:47:16Z</time>
      </trkpt>
      <trkpt lat="51.604967024177313" lon="14.760607006028295">
        <ele>97</ele>
        <time>2010-01-01T07:48:11Z</time>
      </trkpt>
      <trkpt lat="51.606709035113454" lon="14.76018900051713">
        <ele>99</ele>
        <time>2010-01-01T07:49:22Z</time>
      </trkpt>
      <trkpt lat="51.608691019937396" lon="14.763017976656556">
        <ele>99</ele>
        <time>2010-01-01T07:51:08Z</time>
      </trkpt>
      <trkpt lat="51.617602994665504" lon="14.763438999652863">
        <ele>92</ele>
        <time>2010-01-01T07:57:07Z</time>
      </trkpt>
      <trkpt lat="51.618742011487484" lon="14.762497041374445">
        <ele>96</ele>
        <time>2010-01-01T07:57:59Z</time>
      </trkpt>
      <trkpt lat="51.61950702778995" lon="14.762479020282626">
        <ele>96</ele>
        <time>2010-01-01T07:58:34Z</time>
      </trkpt>
      <trkpt lat="51.619963003322482" lon="14.761372022330761">
        <ele>94</ele>
        <time>2010-01-01T07:59:07Z</time>
      </trkpt>
      <trkpt lat="51.622339021414518" lon="14.758351016789675">
        <ele>101</ele>
        <time>2010-01-01T08:01:09Z</time>
      </trkpt>
      <trkpt lat="51.625299006700516" lon="14.754082029685378">
        <ele>105</ele>
        <time>2010-01-01T08:03:49Z</time>
      </trkpt>
      <trkpt lat="51.626723008230329" lon="14.753447016701102">
        <ele>108</ele>
        <time>2010-01-01T08:04:49Z</time>
      </trkpt>
      <trkpt lat="51.626781011000276" lon="14.753397982567549">
        <ele>108</ele>
        <time>2010-01-01T08:04:52Z</time>
      </trkpt>
      <trkpt lat="51.6285739839077" lon="14.752788031473756">
        <ele>97</ele>
        <time>2010-01-01T08:06:06Z</time>
      </trkpt>
      <trkpt lat="51.630434012040496" lon="14.75370199419558">
        <ele>91</ele>
        <time>2010-01-01T08:07:25Z</time>
      </trkpt>
      <trkpt lat="51.634341990575194" lon="14.754154030233622">
        <ele>91</ele>
        <time>2010-01-01T08:10:02Z</time>
      </trkpt>
      <trkpt lat="51.636323975399137" lon="14.753403011709452">
        <ele>91</ele>
        <time>2010-01-01T08:11:25Z</time>
      </trkpt>
      <trkpt lat="51.636254992336035" lon="14.752902025356889">
        <ele>91</ele>
        <time>2010-01-01T08:11:38Z</time>
      </trkpt>
      <trkpt lat="51.635937988758087" lon="14.751403005793691">
        <ele>90</ele>
        <time>2010-01-01T08:12:19Z</time>
      </trkpt>
      <trkpt lat="51.637921985238791" lon="14.749752022325993">
        <ele>93</ele>
        <time>2010-01-01T08:13:49Z</time>
      </trkpt>
      <trkpt lat="51.640246035531163" lon="14.750882992520928">
        <ele>93</ele>
        <time>2010-01-01T08:15:29Z</time>
      </trkpt>
      <trkpt lat="51.640452984720469" lon="14.751985967159271">
        <ele>91</ele>
        <time>2010-01-01T08:15:58Z</time>
      </trkpt>
      <trkpt lat="51.640143021941185" lon="14.752257037907839">
        <ele>92</ele>
        <time>2010-01-01T08:16:14Z</time>
      </trkpt>
      <trkpt lat="51.643051961436868" lon="14.753531003370881">
        <ele>101</ele>
        <time>2010-01-01T08:18:15Z</time>
      </trkpt>
      <trkpt lat="51.644776035100222" lon="14.753982033580542">
        <ele>95</ele>
        <time>2010-01-01T08:19:25Z</time>
      </trkpt>
      <trkpt lat="51.648258967325091" lon="14.752928009256721">
        <ele>89</ele>
        <time>2010-01-01T08:21:47Z</time>
      </trkpt>
      <trkpt lat="51.651378041133285" lon="14.750572023913264">
        <ele>89</ele>
        <time>2010-01-01T08:24:06Z</time>
      </trkpt>
      <trkpt lat="51.65227297693491" lon="14.750394998118281">
        <ele>87</ele>
        <time>2010-01-01T08:24:42Z</time>
      </trkpt>
      <trkpt lat="51.654130993410945" lon="14.750985000282526">
        <ele>87</ele>
        <time>2010-01-01T08:25:58Z</time>
      </trkpt>
      <trkpt lat="51.654924005270004" lon="14.751961994916201">
        <ele>90</ele>
        <time>2010-01-01T08:26:38Z</time>
      </trkpt>
      <trkpt lat="51.655672006309032" lon="14.754055961966515">
        <ele>93</ele>
        <time>2010-01-01T08:27:39Z</time>
      </trkpt>
      <trkpt lat="51.659998996183276" lon="14.756790976971388">
        <ele>88</ele>
        <time>2010-01-01T08:30:46Z</time>
      </trkpt>
      <trkpt lat="51.663865987211466" lon="14.752843016758561">
        <ele>89</ele>
        <time>2010-01-01T08:33:50Z</time>
      </trkpt>
      <trkpt lat="51.666231025010347" lon="14.751741969957948">
        <ele>91</ele>
        <time>2010-01-01T08:35:31Z</time>
      </trkpt>
      <trkpt lat="51.666505029425025" lon="14.747444987297058">
        <ele>88</ele>
        <time>2010-01-01T08:37:23Z</time>
      </trkpt>
      <trkpt lat="51.667970018461347" lon="14.746034983545542">
        <ele>86</ele>
        <time>2010-01-01T08:38:32Z</time>
      </trkpt>
      <trkpt lat="51.672752983868122" lon="14.744894038885832">
        <ele>89</ele>
        <time>2010-01-01T08:41:47Z</time>
      </trkpt>
      <trkpt lat="51.673389002680779" lon="14.747181041166186">
        <ele>87</ele>
        <time>2010-01-01T08:42:51Z</time>
      </trkpt>
      <trkpt lat="51.674990030005574" lon="14.745996007695794">
        <ele>87</ele>
        <time>2010-01-01T08:44:05Z</time>
      </trkpt>
      <trkpt lat="51.675750017166138" lon="14.745086990296841">
        <ele>88</ele>
        <time>2010-01-01T08:44:43Z</time>
      </trkpt>
      <trkpt lat="51.676103984937072" lon="14.743803972378373">
        <ele>90</ele>
        <time>2010-01-01T08:45:18Z</time>
      </trkpt>
      <trkpt lat="51.676827007904649" lon="14.739602040499449">
        <ele>85</ele>
        <time>2010-01-01T08:47:06Z</time>
      </trkpt>
      <trkpt lat="51.677576014772058" lon="14.737881990149617">
        <ele>86</ele>
        <time>2010-01-01T08:47:59Z</time>
      </trkpt>
      <trkpt lat="51.67852601967752" lon="14.73689703270793">
        <ele>84</ele>
        <time>2010-01-01T08:48:44Z</time>
      </trkpt>
      <trkpt lat="51.680690981447697" lon="14.736064039170742">
        <ele>85</ele>
        <time>2010-01-01T08:50:13Z</time>
      </trkpt>
      <trkpt lat="51.683707963675261" lon="14.737987015396357">
        <ele>85</ele>
        <time>2010-01-01T08:52:25Z</time>
      </trkpt>
      <trkpt lat="51.686784038320184" lon="14.736823020502925">
        <ele>84</ele>
        <time>2010-01-01T08:54:32Z</time>
      </trkpt>
      <trkpt lat="51.687497003003955" lon="14.734829971566796">
        <ele>85</ele>
        <time>2010-01-01T08:55:30Z</time>
      </trkpt>
      <trkpt lat="51.687771007418633" lon="14.729674011468887">
        <ele>83</ele>
        <time>2010-01-01T08:57:38Z</time>
      </trkpt>
      <trkpt lat="51.688519008457661" lon="14.726931033656001">
        <ele>83</ele>
        <time>2010-01-01T08:58:53Z</time>
      </trkpt>
      <trkpt lat="51.691250000149012" lon="14.720768993720412">
        <ele>83</ele>
        <time>2010-01-01T09:02:01Z</time>
      </trkpt>
      <trkpt lat="51.692009987309575" lon="14.71958396025002">
        <ele>83</ele>
        <time>2010-01-01T09:02:43Z</time>
      </trkpt>
      <trkpt lat="51.694133961573243" lon="14.71760499291122">
        <ele>84</ele>
        <time>2010-01-01T09:04:21Z</time>
      </trkpt>
      <trkpt lat="51.69511397369206" lon="14.715967001393437">
        <ele>88</ele>
        <time>2010-01-01T09:05:18Z</time>
      </trkpt>
      <trkpt lat="51.701478017494082" lon="14.703684998676181">
        <ele>85</ele>
        <time>2010-01-01T09:11:55Z</time>
      </trkpt>
      <trkpt lat="51.703016012907028" lon="14.70200702548027">
        <ele>83</ele>
        <time>2010-01-01T09:13:10Z</time>
      </trkpt>
      <trkpt lat="51.705999970436096" lon="14.695637030526996">
        <ele>87</ele>
        <time>2010-01-01T09:16:28Z</time>
      </trkpt>
      <trkpt lat="51.708934977650642" lon="14.688479974865913">
        <ele>79</ele>
        <time>2010-01-01T09:20:01Z</time>
      </trkpt>
      <trkpt lat="51.711576031520963" lon="14.686190960928798">
        <ele>79</ele>
        <time>2010-01-01T09:22:01Z</time>
      </trkpt>
      <trkpt lat="51.713242018595338" lon="14.684142004698515">
        <ele>80</ele>
        <time>2010-01-01T09:23:25Z</time>
      </trkpt>
      <trkpt lat="51.717424001544714" lon="14.679140020161867">
        <ele>79</ele>
        <time>2010-01-01T09:26:54Z</time>
      </trkpt>
      <trkpt lat="51.721942014992237" lon="14.677066002041101">
        <ele>90</ele>
        <time>2010-01-01T09:30:02Z</time>
      </trkpt>
      <trkpt lat="51.722825970500708" lon="14.67512802220881">
        <ele>90</ele>
        <time>2010-01-01T09:31:03Z</time>
      </trkpt>
      <trkpt lat="51.726162973791361" lon="14.662681985646486">
        <ele>79</ele>
        <time>2010-01-01T09:36:41Z</time>
      </trkpt>
      <trkpt lat="51.728116041049361" lon="14.660773007199168">
        <ele>80</ele>
        <time>2010-01-01T09:38:13Z</time>
      </trkpt>
      <trkpt lat="51.729220021516085" lon="14.662480987608433">
        <ele>81</ele>
        <time>2010-01-01T09:39:16Z</time>
      </trkpt>
      <trkpt lat="51.732804039493203" lon="14.660555999726057">
        <ele>79</ele>
        <time>2010-01-01T09:41:56Z</time>
      </trkpt>
      <trkpt lat="51.740552019327879" lon="14.654186004772782">
        <ele>79</ele>
        <time>2010-01-01T09:47:52Z</time>
      </trkpt>
      <trkpt lat="51.74070599488914" lon="14.652580032125115">
        <ele>79</ele>
        <time>2010-01-01T09:48:35Z</time>
      </trkpt>
      <trkpt lat="51.74412002786994" lon="14.652273003011942">
        <ele>78</ele>
        <time>2010-01-01T09:50:53Z</time>
      </trkpt>
      <trkpt lat="51.744033023715019" lon="14.649622980505228">
        <ele>77</ele>
        <time>2010-01-01T09:52:10Z</time>
      </trkpt>
      <trkpt lat="51.744619002565742" lon="14.647774016484618">
        <ele>80</ele>
        <time>2010-01-01T09:53:05Z</time>
      </trkpt>
      <trkpt lat="51.744884038344026" lon="14.647825984284282">
        <ele>80</ele>
        <time>2010-01-01T09:53:16Z</time>
      </trkpt>
      <trkpt lat="51.744182975962758" lon="14.64739297516644">
        <ele>78</ele>
        <time>2010-01-01T09:53:46Z</time>
      </trkpt>
      <trkpt lat="51.744377017021179" lon="14.646087996661663">
        <ele>77</ele>
        <time>2010-01-01T09:54:21Z</time>
      </trkpt>
      <trkpt lat="51.744012990966439" lon="14.653126029297709">
        <ele>80</ele>
        <time>2010-01-01T09:57:28Z</time>
      </trkpt>
      <trkpt lat="51.743980972096324" lon="14.656406035646796">
        <ele>79</ele>
        <time>2010-01-01T09:58:53Z</time>
      </trkpt>
      <trkpt lat="51.741618029773235" lon="14.654859993606806">
        <ele>78</ele>
        <time>2010-01-01T10:01:04Z</time>
      </trkpt>
    </trkseg>
  </trk>

</gpx>